sensor_id;sensor_type;location;lat;lon;timestamp;P1;durP1;ratioP1;P2;durP2;ratioP2
19940;SDS011;10132;50.864;5.176;2022-10-26T00:01:38;4.47;;;2.00;;
19940;SDS011;10132;50.864;5.176;2022-10-26T00:03:41;6.50;;;2.20;;
19940;SDS011;10132;50.864;5.176;2022-10-26T00:05:44;4.90;;;1.70;;
19940;SDS011;10132;50.864;5.176;2022-10-26T00:07:46;4.70;;;1.80;;
19940;SDS011;10132;50.864;5.176;2022-10-26T00:09:47;6.10;;;1.87;;
19940;SDS011;10132;50.864;5.176;2022-10-26T00:11:49;5.93;;;2.20;;
19940;SDS011;10132;50.864;5.176;2022-10-26T00:13:54;5.07;;;1.63;;
19940;SDS011;10132;50.864;5.176;2022-10-26T00:15:56;5.40;;;2.10;;
19940;SDS011;10132;50.864;5.176;2022-10-26T00:17:58;3.77;;;1.90;;
19940;SDS011;10132;50.864;5.176;2022-10-26T00:20:00;4.33;;;1.80;;
19940;SDS011;10132;50.864;5.176;2022-10-26T00:22:02;7.13;;;1.70;;
19940;SDS011;10132;50.864;5.176;2022-10-26T00:24:04;5.33;;;1.83;;
19940;SDS011;10132;50.864;5.176;2022-10-26T00:26:06;4.10;;;1.50;;
19940;SDS011;10132;50.864;5.176;2022-10-26T00:28:09;4.80;;;1.53;;
19940;SDS011;10132;50.864;5.176;2022-10-26T00:30:12;5.93;;;2.10;;
19940;SDS011;10132;50.864;5.176;2022-10-26T00:32:14;4.63;;;1.77;;
19940;SDS011;10132;50.864;5.176;2022-10-26T00:34:16;6.10;;;2.00;;
19940;SDS011;10132;50.864;5.176;2022-10-26T00:36:18;5.97;;;2.20;;
19940;SDS011;10132;50.864;5.176;2022-10-26T00:38:20;4.37;;;2.00;;
19940;SDS011;10132;50.864;5.176;2022-10-26T00:40:25;6.83;;;1.90;;
19940;SDS011;10132;50.864;5.176;2022-10-26T00:42:28;6.43;;;2.23;;
19940;SDS011;10132;50.864;5.176;2022-10-26T00:47:01;5.67;;;2.40;;
19940;SDS011;10132;50.864;5.176;2022-10-26T00:49:05;6.70;;;2.03;;
19940;SDS011;10132;50.864;5.176;2022-10-26T00:51:14;4.37;;;1.93;;
19940;SDS011;10132;50.864;5.176;2022-10-26T00:53:22;4.53;;;2.10;;
19940;SDS011;10132;50.864;5.176;2022-10-26T00:55:26;7.10;;;2.17;;
19940;SDS011;10132;50.864;5.176;2022-10-26T00:57:31;6.23;;;2.20;;
19940;SDS011;10132;50.864;5.176;2022-10-26T00:59:35;4.00;;;1.90;;
19940;SDS011;10132;50.864;5.176;2022-10-26T01:01:38;5.93;;;2.03;;
19940;SDS011;10132;50.864;5.176;2022-10-26T01:03:44;4.83;;;2.00;;
19940;SDS011;10132;50.864;5.176;2022-10-26T01:05:47;5.10;;;1.80;;
19940;SDS011;10132;50.864;5.176;2022-10-26T01:07:50;8.57;;;2.40;;
19940;SDS011;10132;50.864;5.176;2022-10-26T01:09:52;6.77;;;2.30;;
19940;SDS011;10132;50.864;5.176;2022-10-26T01:11:55;4.50;;;2.20;;
19940;SDS011;10132;50.864;5.176;2022-10-26T01:13:57;6.27;;;2.00;;
19940;SDS011;10132;50.864;5.176;2022-10-26T01:16:04;4.93;;;1.97;;
19940;SDS011;10132;50.864;5.176;2022-10-26T01:18:26;6.30;;;1.93;;
19940;SDS011;10132;50.864;5.176;2022-10-26T01:20:46;4.60;;;1.83;;
19940;SDS011;10132;50.864;5.176;2022-10-26T01:23:15;7.60;;;1.83;;
19940;SDS011;10132;50.864;5.176;2022-10-26T01:25:27;3.43;;;1.60;;
19940;SDS011;10132;50.864;5.176;2022-10-26T01:27:44;5.60;;;1.70;;
19940;SDS011;10132;50.864;5.176;2022-10-26T01:29:50;4.67;;;1.80;;
19940;SDS011;10132;50.864;5.176;2022-10-26T01:32:17;4.80;;;1.70;;
19940;SDS011;10132;50.864;5.176;2022-10-26T01:34:27;4.10;;;1.80;;
19940;SDS011;10132;50.864;5.176;2022-10-26T01:36:36;5.20;;;1.70;;
19940;SDS011;10132;50.864;5.176;2022-10-26T01:38:46;7.07;;;2.10;;
19940;SDS011;10132;50.864;5.176;2022-10-26T01:40:57;3.77;;;2.40;;
19940;SDS011;10132;50.864;5.176;2022-10-26T01:43:06;4.47;;;1.53;;
19940;SDS011;10132;50.864;5.176;2022-10-26T01:45:11;3.27;;;1.57;;
19940;SDS011;10132;50.864;5.176;2022-10-26T01:47:16;5.13;;;1.70;;
19940;SDS011;10132;50.864;5.176;2022-10-26T01:49:21;6.20;;;1.80;;
19940;SDS011;10132;50.864;5.176;2022-10-26T01:51:27;3.93;;;1.60;;
19940;SDS011;10132;50.864;5.176;2022-10-26T01:53:30;4.07;;;1.70;;
19940;SDS011;10132;50.864;5.176;2022-10-26T01:57:49;5.50;;;2.10;;
19940;SDS011;10132;50.864;5.176;2022-10-26T01:59:57;6.73;;;1.70;;
19940;SDS011;10132;50.864;5.176;2022-10-26T02:02:15;3.57;;;1.40;;
19940;SDS011;10132;50.864;5.176;2022-10-26T02:04:40;3.70;;;1.77;;
19940;SDS011;10132;50.864;5.176;2022-10-26T02:06:57;4.43;;;1.20;;
19940;SDS011;10132;50.864;5.176;2022-10-26T02:09:05;5.30;;;1.60;;
19940;SDS011;10132;50.864;5.176;2022-10-26T02:11:16;4.97;;;1.77;;
19940;SDS011;10132;50.864;5.176;2022-10-26T02:13:25;3.83;;;1.60;;
19940;SDS011;10132;50.864;5.176;2022-10-26T02:15:34;4.27;;;1.77;;
19940;SDS011;10132;50.864;5.176;2022-10-26T02:17:44;4.90;;;1.60;;
19940;SDS011;10132;50.864;5.176;2022-10-26T02:19:49;4.73;;;1.40;;
19940;SDS011;10132;50.864;5.176;2022-10-26T02:21:56;4.53;;;1.87;;
19940;SDS011;10132;50.864;5.176;2022-10-26T02:24:03;2.47;;;1.50;;
19940;SDS011;10132;50.864;5.176;2022-10-26T02:26:08;4.87;;;1.97;;
19940;SDS011;10132;50.864;5.176;2022-10-26T02:28:14;5.17;;;1.67;;
19940;SDS011;10132;50.864;5.176;2022-10-26T02:30:21;3.63;;;1.40;;
19940;SDS011;10132;50.864;5.176;2022-10-26T02:32:23;4.00;;;1.43;;
19940;SDS011;10132;50.864;5.176;2022-10-26T02:34:29;4.73;;;1.67;;
19940;SDS011;10132;50.864;5.176;2022-10-26T02:36:34;6.03;;;1.67;;
19940;SDS011;10132;50.864;5.176;2022-10-26T02:38:39;4.63;;;1.53;;
19940;SDS011;10132;50.864;5.176;2022-10-26T02:40:42;4.80;;;1.50;;
19940;SDS011;10132;50.864;5.176;2022-10-26T02:42:46;4.03;;;1.33;;
19940;SDS011;10132;50.864;5.176;2022-10-26T02:44:52;5.07;;;1.83;;
19940;SDS011;10132;50.864;5.176;2022-10-26T02:46:57;4.40;;;1.50;;
19940;SDS011;10132;50.864;5.176;2022-10-26T02:49:00;3.10;;;1.37;;
19940;SDS011;10132;50.864;5.176;2022-10-26T02:51:05;3.77;;;1.53;;
19940;SDS011;10132;50.864;5.176;2022-10-26T02:53:13;4.23;;;1.60;;
19940;SDS011;10132;50.864;5.176;2022-10-26T02:55:20;3.13;;;1.30;;
19940;SDS011;10132;50.864;5.176;2022-10-26T02:57:26;4.10;;;1.23;;
19940;SDS011;10132;50.864;5.176;2022-10-26T02:59:33;2.97;;;1.20;;
19940;SDS011;10132;50.864;5.176;2022-10-26T03:01:37;3.57;;;1.20;;
19940;SDS011;10132;50.864;5.176;2022-10-26T03:03:41;2.57;;;1.20;;
19940;SDS011;10132;50.864;5.176;2022-10-26T03:05:43;1.70;;;1.00;;
19940;SDS011;10132;50.864;5.176;2022-10-26T03:07:46;2.93;;;1.20;;
19940;SDS011;10132;50.864;5.176;2022-10-26T03:09:48;2.73;;;1.03;;
19940;SDS011;10132;50.864;5.176;2022-10-26T03:11:51;2.13;;;1.30;;
19940;SDS011;10132;50.864;5.176;2022-10-26T03:13:53;4.03;;;1.30;;
19940;SDS011;10132;50.864;5.176;2022-10-26T03:15:55;8.20;;;1.87;;
19940;SDS011;10132;50.864;5.176;2022-10-26T03:17:57;3.20;;;1.30;;
19940;SDS011;10132;50.864;5.176;2022-10-26T03:19:59;2.10;;;1.10;;
19940;SDS011;10132;50.864;5.176;2022-10-26T03:22:01;4.57;;;1.10;;
19940;SDS011;10132;50.864;5.176;2022-10-26T03:24:05;4.07;;;1.20;;
19940;SDS011;10132;50.864;5.176;2022-10-26T03:26:07;1.67;;;1.20;;
19940;SDS011;10132;50.864;5.176;2022-10-26T03:28:09;3.60;;;1.20;;
19940;SDS011;10132;50.864;5.176;2022-10-26T03:30:11;2.93;;;1.17;;
19940;SDS011;10132;50.864;5.176;2022-10-26T03:32:13;2.63;;;1.40;;
19940;SDS011;10132;50.864;5.176;2022-10-26T03:34:14;3.17;;;1.00;;
19940;SDS011;10132;50.864;5.176;2022-10-26T03:36:16;3.00;;;1.10;;
19940;SDS011;10132;50.864;5.176;2022-10-26T03:38:18;2.13;;;1.17;;
19940;SDS011;10132;50.864;5.176;2022-10-26T03:40:21;3.30;;;1.00;;
19940;SDS011;10132;50.864;5.176;2022-10-26T03:42:24;5.07;;;1.33;;
19940;SDS011;10132;50.864;5.176;2022-10-26T03:44:27;4.10;;;1.17;;
19940;SDS011;10132;50.864;5.176;2022-10-26T03:46:29;2.07;;;1.10;;
19940;SDS011;10132;50.864;5.176;2022-10-26T03:48:30;5.90;;;1.20;;
19940;SDS011;10132;50.864;5.176;2022-10-26T03:50:32;1.97;;;0.93;;
19940;SDS011;10132;50.864;5.176;2022-10-26T03:52:34;2.87;;;1.20;;
19940;SDS011;10132;50.864;5.176;2022-10-26T03:54:36;3.37;;;1.03;;
19940;SDS011;10132;50.864;5.176;2022-10-26T03:56:39;2.87;;;1.17;;
19940;SDS011;10132;50.864;5.176;2022-10-26T03:58:41;2.47;;;1.30;;
19940;SDS011;10132;50.864;5.176;2022-10-26T04:00:43;2.03;;;1.00;;
19940;SDS011;10132;50.864;5.176;2022-10-26T04:02:48;2.37;;;1.00;;
19940;SDS011;10132;50.864;5.176;2022-10-26T04:04:54;3.43;;;1.07;;
19940;SDS011;10132;50.864;5.176;2022-10-26T04:06:56;3.73;;;1.10;;
19940;SDS011;10132;50.864;5.176;2022-10-26T04:08:58;4.13;;;1.00;;
19940;SDS011;10132;50.864;5.176;2022-10-26T04:11:01;1.77;;;0.97;;
19940;SDS011;10132;50.864;5.176;2022-10-26T04:13:04;3.93;;;1.20;;
19940;SDS011;10132;50.864;5.176;2022-10-26T04:15:06;6.57;;;1.20;;
19940;SDS011;10132;50.864;5.176;2022-10-26T04:17:09;1.77;;;1.00;;
19940;SDS011;10132;50.864;5.176;2022-10-26T04:19:11;4.67;;;1.20;;
19940;SDS011;10132;50.864;5.176;2022-10-26T04:21:13;5.40;;;1.10;;
19940;SDS011;10132;50.864;5.176;2022-10-26T04:23:15;4.63;;;1.00;;
19940;SDS011;10132;50.864;5.176;2022-10-26T04:25:18;3.53;;;1.10;;
19940;SDS011;10132;50.864;5.176;2022-10-26T04:27:20;1.40;;;0.83;;
19940;SDS011;10132;50.864;5.176;2022-10-26T04:29:24;3.07;;;0.90;;
19940;SDS011;10132;50.864;5.176;2022-10-26T04:31:26;4.53;;;1.07;;
19940;SDS011;10132;50.864;5.176;2022-10-26T04:33:27;2.87;;;1.10;;
19940;SDS011;10132;50.864;5.176;2022-10-26T04:35:29;4.13;;;1.10;;
19940;SDS011;10132;50.864;5.176;2022-10-26T04:37:32;2.03;;;0.93;;
19940;SDS011;10132;50.864;5.176;2022-10-26T04:39:34;1.60;;;1.10;;
19940;SDS011;10132;50.864;5.176;2022-10-26T04:41:36;3.37;;;1.10;;
19940;SDS011;10132;50.864;5.176;2022-10-26T04:43:38;2.67;;;1.10;;
19940;SDS011;10132;50.864;5.176;2022-10-26T04:45:41;2.57;;;1.00;;
19940;SDS011;10132;50.864;5.176;2022-10-26T04:47:43;5.50;;;1.30;;
19940;SDS011;10132;50.864;5.176;2022-10-26T04:49:45;3.23;;;1.00;;
19940;SDS011;10132;50.864;5.176;2022-10-26T04:51:46;2.83;;;1.17;;
19940;SDS011;10132;50.864;5.176;2022-10-26T04:53:48;1.83;;;1.00;;
19940;SDS011;10132;50.864;5.176;2022-10-26T04:55:54;2.53;;;1.00;;
19940;SDS011;10132;50.864;5.176;2022-10-26T04:57:56;5.33;;;1.10;;
19940;SDS011;10132;50.864;5.176;2022-10-26T04:59:58;14.80;;;1.80;;
19940;SDS011;10132;50.864;5.176;2022-10-26T05:02:02;3.10;;;1.30;;
19940;SDS011;10132;50.864;5.176;2022-10-26T05:04:04;3.30;;;1.30;;
19940;SDS011;10132;50.864;5.176;2022-10-26T05:06:05;3.03;;;1.20;;
19940;SDS011;10132;50.864;5.176;2022-10-26T05:08:07;3.27;;;1.17;;
19940;SDS011;10132;50.864;5.176;2022-10-26T05:10:09;4.53;;;1.53;;
19940;SDS011;10132;50.864;5.176;2022-10-26T05:12:11;3.90;;;1.30;;
19940;SDS011;10132;50.864;5.176;2022-10-26T05:14:13;3.00;;;1.30;;
19940;SDS011;10132;50.864;5.176;2022-10-26T05:16:15;3.50;;;1.30;;
19940;SDS011;10132;50.864;5.176;2022-10-26T05:18:18;4.20;;;1.27;;
19940;SDS011;10132;50.864;5.176;2022-10-26T05:20:20;3.07;;;1.20;;
19940;SDS011;10132;50.864;5.176;2022-10-26T05:22:28;3.40;;;1.40;;
19940;SDS011;10132;50.864;5.176;2022-10-26T05:24:30;4.20;;;1.43;;
19940;SDS011;10132;50.864;5.176;2022-10-26T05:26:31;4.80;;;1.20;;
19940;SDS011;10132;50.864;5.176;2022-10-26T05:28:33;2.80;;;1.30;;
19940;SDS011;10132;50.864;5.176;2022-10-26T05:30:35;2.43;;;1.30;;
19940;SDS011;10132;50.864;5.176;2022-10-26T05:32:37;3.70;;;1.17;;
19940;SDS011;10132;50.864;5.176;2022-10-26T05:34:40;6.20;;;1.40;;
19940;SDS011;10132;50.864;5.176;2022-10-26T05:36:42;2.57;;;1.20;;
19940;SDS011;10132;50.864;5.176;2022-10-26T05:38:44;3.10;;;1.40;;
19940;SDS011;10132;50.864;5.176;2022-10-26T05:40:46;4.50;;;1.63;;
19940;SDS011;10132;50.864;5.176;2022-10-26T05:42:48;5.05;;;1.58;;
19940;SDS011;10132;50.864;5.176;2022-10-26T05:44:50;5.23;;;1.23;;
19940;SDS011;10132;50.864;5.176;2022-10-26T05:46:52;3.60;;;1.13;;
19940;SDS011;10132;50.864;5.176;2022-10-26T05:48:54;4.93;;;1.40;;
19940;SDS011;10132;50.864;5.176;2022-10-26T05:50:58;2.80;;;1.47;;
19940;SDS011;10132;50.864;5.176;2022-10-26T05:53:00;3.73;;;1.60;;
19940;SDS011;10132;50.864;5.176;2022-10-26T05:55:03;3.53;;;1.40;;
19940;SDS011;10132;50.864;5.176;2022-10-26T05:57:08;2.93;;;1.40;;
19940;SDS011;10132;50.864;5.176;2022-10-26T05:59:12;4.60;;;1.50;;
19940;SDS011;10132;50.864;5.176;2022-10-26T06:01:18;8.57;;;1.80;;
19940;SDS011;10132;50.864;5.176;2022-10-26T06:03:30;2.07;;;1.30;;
19940;SDS011;10132;50.864;5.176;2022-10-26T06:05:44;5.43;;;1.50;;
19940;SDS011;10132;50.864;5.176;2022-10-26T06:07:55;3.60;;;1.40;;
19940;SDS011;10132;50.864;5.176;2022-10-26T06:09:58;3.00;;;1.43;;
19940;SDS011;10132;50.864;5.176;2022-10-26T06:12:00;4.70;;;1.60;;
19940;SDS011;10132;50.864;5.176;2022-10-26T06:14:02;2.77;;;1.30;;
19940;SDS011;10132;50.864;5.176;2022-10-26T06:16:09;3.77;;;1.67;;
19940;SDS011;10132;50.864;5.176;2022-10-26T06:18:24;3.73;;;1.50;;
19940;SDS011;10132;50.864;5.176;2022-10-26T06:20:40;3.10;;;1.60;;
19940;SDS011;10132;50.864;5.176;2022-10-26T06:22:53;6.67;;;1.77;;
19940;SDS011;10132;50.864;5.176;2022-10-26T06:25:08;4.30;;;1.40;;
19940;SDS011;10132;50.864;5.176;2022-10-26T06:27:22;5.03;;;2.07;;
19940;SDS011;10132;50.864;5.176;2022-10-26T06:29:34;5.17;;;1.87;;
19940;SDS011;10132;50.864;5.176;2022-10-26T06:31:44;7.20;;;1.70;;
19940;SDS011;10132;50.864;5.176;2022-10-26T06:33:47;3.97;;;1.33;;
19940;SDS011;10132;50.864;5.176;2022-10-26T06:35:50;6.10;;;1.80;;
19940;SDS011;10132;50.864;5.176;2022-10-26T06:38:04;3.57;;;1.67;;
19940;SDS011;10132;50.864;5.176;2022-10-26T06:40:10;3.07;;;1.50;;
19940;SDS011;10132;50.864;5.176;2022-10-26T06:42:16;2.83;;;1.87;;
19940;SDS011;10132;50.864;5.176;2022-10-26T06:44:20;3.67;;;1.60;;
19940;SDS011;10132;50.864;5.176;2022-10-26T06:46:29;6.30;;;1.70;;
19940;SDS011;10132;50.864;5.176;2022-10-26T06:48:41;7.10;;;1.70;;
19940;SDS011;10132;50.864;5.176;2022-10-26T06:50:50;5.43;;;2.27;;
19940;SDS011;10132;50.864;5.176;2022-10-26T06:52:55;3.90;;;1.70;;
19940;SDS011;10132;50.864;5.176;2022-10-26T06:55:11;6.20;;;2.27;;
19940;SDS011;10132;50.864;5.176;2022-10-26T06:57:15;5.30;;;1.80;;
19940;SDS011;10132;50.864;5.176;2022-10-26T06:59:22;4.10;;;1.83;;
19940;SDS011;10132;50.864;5.176;2022-10-26T07:01:32;6.17;;;1.80;;
19940;SDS011;10132;50.864;5.176;2022-10-26T07:03:34;4.00;;;1.80;;
19940;SDS011;10132;50.864;5.176;2022-10-26T07:05:36;3.37;;;1.60;;
19940;SDS011;10132;50.864;5.176;2022-10-26T07:07:39;5.07;;;1.67;;
19940;SDS011;10132;50.864;5.176;2022-10-26T07:09:43;3.77;;;1.70;;
19940;SDS011;10132;50.864;5.176;2022-10-26T07:11:46;3.23;;;1.60;;
19940;SDS011;10132;50.864;5.176;2022-10-26T07:13:48;3.50;;;1.27;;
19940;SDS011;10132;50.864;5.176;2022-10-26T07:15:50;4.37;;;1.50;;
19940;SDS011;10132;50.864;5.176;2022-10-26T07:17:52;3.77;;;1.90;;
19940;SDS011;10132;50.864;5.176;2022-10-26T07:19:54;4.97;;;1.60;;
19940;SDS011;10132;50.864;5.176;2022-10-26T07:21:57;6.20;;;1.70;;
19940;SDS011;10132;50.864;5.176;2022-10-26T07:23:59;5.27;;;1.90;;
19940;SDS011;10132;50.864;5.176;2022-10-26T07:26:02;5.03;;;1.70;;
19940;SDS011;10132;50.864;5.176;2022-10-26T07:28:04;5.63;;;2.00;;
19940;SDS011;10132;50.864;5.176;2022-10-26T07:30:09;6.87;;;2.10;;
19940;SDS011;10132;50.864;5.176;2022-10-26T07:32:11;2.83;;;1.47;;
19940;SDS011;10132;50.864;5.176;2022-10-26T07:34:14;6.17;;;1.90;;
19940;SDS011;10132;50.864;5.176;2022-10-26T07:36:16;5.63;;;2.03;;
19940;SDS011;10132;50.864;5.176;2022-10-26T07:38:18;3.97;;;1.80;;
19940;SDS011;10132;50.864;5.176;2022-10-26T07:40:20;3.63;;;1.70;;
19940;SDS011;10132;50.864;5.176;2022-10-26T07:42:23;6.00;;;2.00;;
19940;SDS011;10132;50.864;5.176;2022-10-26T07:44:25;7.22;;;1.65;;
19940;SDS011;10132;50.864;5.176;2022-10-26T07:46:27;6.17;;;1.60;;
19940;SDS011;10132;50.864;5.176;2022-10-26T07:48:29;4.80;;;1.83;;
19940;SDS011;10132;50.864;5.176;2022-10-26T07:50:32;6.53;;;1.70;;
19940;SDS011;10132;50.864;5.176;2022-10-26T07:52:34;4.57;;;1.80;;
19940;SDS011;10132;50.864;5.176;2022-10-26T07:54:36;5.50;;;1.92;;
19940;SDS011;10132;50.864;5.176;2022-10-26T07:56:38;3.80;;;1.80;;
19940;SDS011;10132;50.864;5.176;2022-10-26T07:58:41;5.07;;;1.70;;
19940;SDS011;10132;50.864;5.176;2022-10-26T08:00:43;6.95;;;2.00;;
19940;SDS011;10132;50.864;5.176;2022-10-26T08:02:45;6.70;;;2.38;;
19940;SDS011;10132;50.864;5.176;2022-10-26T08:04:47;3.38;;;1.73;;
19940;SDS011;10132;50.864;5.176;2022-10-26T08:06:50;5.13;;;1.60;;
19940;SDS011;10132;50.864;5.176;2022-10-26T08:08:52;9.20;;;2.20;;
19940;SDS011;10132;50.864;5.176;2022-10-26T08:10:54;6.13;;;1.63;;
19940;SDS011;10132;50.864;5.176;2022-10-26T08:12:56;5.72;;;1.80;;
19940;SDS011;10132;50.864;5.176;2022-10-26T08:14:59;5.90;;;2.33;;
19940;SDS011;10132;50.864;5.176;2022-10-26T08:17:01;4.63;;;1.70;;
19940;SDS011;10132;50.864;5.176;2022-10-26T08:19:03;6.43;;;1.88;;
19940;SDS011;10132;50.864;5.176;2022-10-26T08:21:05;4.75;;;1.85;;
19940;SDS011;10132;50.864;5.176;2022-10-26T08:23:10;5.03;;;1.70;;
19940;SDS011;10132;50.864;5.176;2022-10-26T08:25:12;4.65;;;1.90;;
19940;SDS011;10132;50.864;5.176;2022-10-26T08:27:15;5.82;;;2.10;;
19940;SDS011;10132;50.864;5.176;2022-10-26T08:29:16;5.35;;;1.75;;
19940;SDS011;10132;50.864;5.176;2022-10-26T08:31:20;5.93;;;2.00;;
19940;SDS011;10132;50.864;5.176;2022-10-26T08:33:22;4.60;;;1.70;;
19940;SDS011;10132;50.864;5.176;2022-10-26T08:35:24;6.13;;;2.20;;
19940;SDS011;10132;50.864;5.176;2022-10-26T08:37:26;5.78;;;2.00;;
19940;SDS011;10132;50.864;5.176;2022-10-26T08:39:28;5.88;;;2.17;;
19940;SDS011;10132;50.864;5.176;2022-10-26T08:41:35;4.40;;;1.90;;
19940;SDS011;10132;50.864;5.176;2022-10-26T08:43:38;5.82;;;1.50;;
19940;SDS011;10132;50.864;5.176;2022-10-26T08:45:44;6.85;;;1.98;;
19940;SDS011;10132;50.864;5.176;2022-10-26T08:47:53;7.50;;;1.95;;
19940;SDS011;10132;50.864;5.176;2022-10-26T08:49:58;4.80;;;1.80;;
19940;SDS011;10132;50.864;5.176;2022-10-26T08:52:03;5.35;;;1.90;;
19940;SDS011;10132;50.864;5.176;2022-10-26T08:54:08;5.80;;;1.67;;
19940;SDS011;10132;50.864;5.176;2022-10-26T08:56:14;5.97;;;2.20;;
19940;SDS011;10132;50.864;5.176;2022-10-26T08:58:20;5.95;;;1.90;;
19940;SDS011;10132;50.864;5.176;2022-10-26T09:00:26;6.82;;;2.50;;
19940;SDS011;10132;50.864;5.176;2022-10-26T09:02:30;5.70;;;1.70;;
19940;SDS011;10132;50.864;5.176;2022-10-26T09:04:34;4.88;;;1.80;;
19940;SDS011;10132;50.864;5.176;2022-10-26T09:06:40;4.90;;;1.70;;
19940;SDS011;10132;50.864;5.176;2022-10-26T09:08:51;5.15;;;1.70;;
19940;SDS011;10132;50.864;5.176;2022-10-26T09:11:02;4.78;;;1.52;;
19940;SDS011;10132;50.864;5.176;2022-10-26T09:13:12;7.15;;;2.00;;
19940;SDS011;10132;50.864;5.176;2022-10-26T09:15:24;4.30;;;1.80;;
19940;SDS011;10132;50.864;5.176;2022-10-26T09:17:37;5.63;;;2.03;;
19940;SDS011;10132;50.864;5.176;2022-10-26T09:19:53;5.07;;;1.70;;
19940;SDS011;10132;50.864;5.176;2022-10-26T09:22:05;4.25;;;1.70;;
19940;SDS011;10132;50.864;5.176;2022-10-26T09:24:12;3.35;;;1.50;;
19940;SDS011;10132;50.864;5.176;2022-10-26T09:26:23;2.95;;;1.70;;
19940;SDS011;10132;50.864;5.176;2022-10-26T09:28:34;8.23;;;1.75;;
19940;SDS011;10132;50.864;5.176;2022-10-26T09:30:38;4.60;;;1.67;;
19940;SDS011;10132;50.864;5.176;2022-10-26T09:32:41;5.50;;;1.90;;
19940;SDS011;10132;50.864;5.176;2022-10-26T09:34:46;4.20;;;2.00;;
19940;SDS011;10132;50.864;5.176;2022-10-26T09:36:53;6.43;;;2.00;;
19940;SDS011;10132;50.864;5.176;2022-10-26T09:38:57;7.53;;;1.70;;
19940;SDS011;10132;50.864;5.176;2022-10-26T09:41:08;5.30;;;1.60;;
19940;SDS011;10132;50.864;5.176;2022-10-26T09:43:24;4.03;;;2.13;;
19940;SDS011;10132;50.864;5.176;2022-10-26T09:45:31;6.07;;;1.70;;
19940;SDS011;10132;50.864;5.176;2022-10-26T09:47:36;6.20;;;1.90;;
19940;SDS011;10132;50.864;5.176;2022-10-26T09:49:40;4.43;;;1.67;;
19940;SDS011;10132;50.864;5.176;2022-10-26T09:51:47;6.70;;;1.50;;
19940;SDS011;10132;50.864;5.176;2022-10-26T09:53:51;6.32;;;1.80;;
19940;SDS011;10132;50.864;5.176;2022-10-26T09:55:58;4.38;;;1.55;;
19940;SDS011;10132;50.864;5.176;2022-10-26T09:58:05;5.72;;;1.70;;
19940;SDS011;10132;50.864;5.176;2022-10-26T10:00:13;2.58;;;1.50;;
19940;SDS011;10132;50.864;5.176;2022-10-26T10:02:36;3.45;;;1.50;;
19940;SDS011;10132;50.864;5.176;2022-10-26T10:04:45;5.38;;;1.48;;
19940;SDS011;10132;50.864;5.176;2022-10-26T10:06:48;4.05;;;1.60;;
19940;SDS011;10132;50.864;5.176;2022-10-26T10:09:04;5.80;;;1.77;;
19940;SDS011;10132;50.864;5.176;2022-10-26T10:11:10;4.72;;;1.33;;
19940;SDS011;10132;50.864;5.176;2022-10-26T10:13:14;5.55;;;1.80;;
19940;SDS011;10132;50.864;5.176;2022-10-26T10:15:18;5.93;;;1.85;;
19940;SDS011;10132;50.864;5.176;2022-10-26T10:17:21;3.85;;;1.55;;
19940;SDS011;10132;50.864;5.176;2022-10-26T10:19:25;3.72;;;1.65;;
19940;SDS011;10132;50.864;5.176;2022-10-26T10:21:35;5.88;;;1.90;;
19940;SDS011;10132;50.864;5.176;2022-10-26T10:23:45;6.45;;;1.58;;
19940;SDS011;10132;50.864;5.176;2022-10-26T10:25:50;5.82;;;1.77;;
19940;SDS011;10132;50.864;5.176;2022-10-26T10:28:00;4.55;;;1.45;;
19940;SDS011;10132;50.864;5.176;2022-10-26T10:30:14;4.90;;;1.45;;
19940;SDS011;10132;50.864;5.176;2022-10-26T10:32:22;4.53;;;1.75;;
19940;SDS011;10132;50.864;5.176;2022-10-26T10:34:24;4.82;;;1.50;;
19940;SDS011;10132;50.864;5.176;2022-10-26T10:36:27;7.05;;;1.85;;
19940;SDS011;10132;50.864;5.176;2022-10-26T10:38:34;3.78;;;1.60;;
19940;SDS011;10132;50.864;5.176;2022-10-26T10:40:38;8.90;;;1.70;;
19940;SDS011;10132;50.864;5.176;2022-10-26T10:42:42;4.38;;;1.63;;
19940;SDS011;10132;50.864;5.176;2022-10-26T10:44:46;5.13;;;1.88;;
19940;SDS011;10132;50.864;5.176;2022-10-26T10:46:58;5.53;;;1.52;;
19940;SDS011;10132;50.864;5.176;2022-10-26T10:49:02;4.38;;;1.42;;
19940;SDS011;10132;50.864;5.176;2022-10-26T10:51:06;5.88;;;1.77;;
19940;SDS011;10132;50.864;5.176;2022-10-26T10:53:12;5.88;;;1.63;;
19940;SDS011;10132;50.864;5.176;2022-10-26T10:55:18;3.70;;;1.48;;
19940;SDS011;10132;50.864;5.176;2022-10-26T10:57:23;5.13;;;1.30;;
19940;SDS011;10132;50.864;5.176;2022-10-26T10:59:36;7.00;;;1.70;;
19940;SDS011;10132;50.864;5.176;2022-10-26T11:01:47;5.10;;;1.30;;
19940;SDS011;10132;50.864;5.176;2022-10-26T11:04:05;3.70;;;1.42;;
19940;SDS011;10132;50.864;5.176;2022-10-26T11:06:24;5.20;;;1.75;;
19940;SDS011;10132;50.864;5.176;2022-10-26T11:08:29;4.72;;;1.25;;
19940;SDS011;10132;50.864;5.176;2022-10-26T11:10:37;5.97;;;1.23;;
19940;SDS011;10132;50.864;5.176;2022-10-26T11:12:42;6.72;;;1.70;;
19940;SDS011;10132;50.864;5.176;2022-10-26T11:14:51;3.40;;;1.55;;
19940;SDS011;10132;50.864;5.176;2022-10-26T11:16:58;3.80;;;1.35;;
19940;SDS011;10132;50.864;5.176;2022-10-26T11:19:11;3.33;;;1.50;;
19940;SDS011;10132;50.864;5.176;2022-10-26T11:21:21;3.53;;;1.33;;
19940;SDS011;10132;50.864;5.176;2022-10-26T11:23:30;2.95;;;1.40;;
19940;SDS011;10132;50.864;5.176;2022-10-26T11:25:38;3.15;;;1.20;;
19940;SDS011;10132;50.864;5.176;2022-10-26T11:27:45;3.30;;;1.30;;
19940;SDS011;10132;50.864;5.176;2022-10-26T11:29:53;4.65;;;1.60;;
19940;SDS011;10132;50.864;5.176;2022-10-26T11:32:03;3.58;;;1.20;;
19940;SDS011;10132;50.864;5.176;2022-10-26T11:34:15;4.13;;;1.30;;
19940;SDS011;10132;50.864;5.176;2022-10-26T11:36:24;4.22;;;1.77;;
19940;SDS011;10132;50.864;5.176;2022-10-26T11:38:32;2.67;;;1.30;;
19940;SDS011;10132;50.864;5.176;2022-10-26T11:40:41;3.50;;;1.50;;
19940;SDS011;10132;50.864;5.176;2022-10-26T11:42:54;3.70;;;1.17;;
19940;SDS011;10132;50.864;5.176;2022-10-26T11:45:07;4.43;;;1.45;;
19940;SDS011;10132;50.864;5.176;2022-10-26T11:47:16;6.75;;;1.15;;
19940;SDS011;10132;50.864;5.176;2022-10-26T11:49:23;6.15;;;1.30;;
19940;SDS011;10132;50.864;5.176;2022-10-26T11:51:35;3.20;;;1.23;;
19940;SDS011;10132;50.864;5.176;2022-10-26T11:53:41;2.05;;;1.05;;
19940;SDS011;10132;50.864;5.176;2022-10-26T11:55:46;4.13;;;1.42;;
19940;SDS011;10132;50.864;5.176;2022-10-26T11:57:52;3.28;;;1.45;;
19940;SDS011;10132;50.864;5.176;2022-10-26T11:59:56;3.08;;;1.10;;
19940;SDS011;10132;50.864;5.176;2022-10-26T12:02:03;4.53;;;1.60;;
19940;SDS011;10132;50.864;5.176;2022-10-26T12:04:10;1.65;;;1.00;;
19940;SDS011;10132;50.864;5.176;2022-10-26T12:06:12;2.15;;;0.98;;
19940;SDS011;10132;50.864;5.176;2022-10-26T12:08:19;3.42;;;1.60;;
19940;SDS011;10132;50.864;5.176;2022-10-26T12:10:25;3.42;;;1.25;;
19940;SDS011;10132;50.864;5.176;2022-10-26T12:12:31;2.75;;;1.17;;
19940;SDS011;10132;50.864;5.176;2022-10-26T12:14:40;2.90;;;1.40;;
19940;SDS011;10132;50.864;5.176;2022-10-26T12:16:47;2.80;;;1.20;;
19940;SDS011;10132;50.864;5.176;2022-10-26T12:19:00;4.07;;;1.30;;
19940;SDS011;10132;50.864;5.176;2022-10-26T12:21:06;3.47;;;1.33;;
19940;SDS011;10132;50.864;5.176;2022-10-26T12:23:09;3.72;;;1.17;;
19940;SDS011;10132;50.864;5.176;2022-10-26T12:25:19;2.53;;;1.20;;
19940;SDS011;10132;50.864;5.176;2022-10-26T12:27:28;4.05;;;1.30;;
19940;SDS011;10132;50.864;5.176;2022-10-26T12:29:36;3.25;;;1.30;;
19940;SDS011;10132;50.864;5.176;2022-10-26T12:31:40;2.95;;;1.50;;
19940;SDS011;10132;50.864;5.176;2022-10-26T12:33:48;2.67;;;1.27;;
19940;SDS011;10132;50.864;5.176;2022-10-26T12:35:52;3.15;;;1.10;;
19940;SDS011;10132;50.864;5.176;2022-10-26T12:37:54;4.38;;;1.30;;
19940;SDS011;10132;50.864;5.176;2022-10-26T12:40:03;2.40;;;0.90;;
19940;SDS011;10132;50.864;5.176;2022-10-26T12:42:41;4.50;;;1.00;;